createdAt,value
2018-04-12T00:00:27.525Z,0.00
2018-04-12T00:01:27.492Z,0.00
2018-04-12T00:03:20.313Z,0.00
2018-04-12T00:04:20.247Z,0.00
2018-04-12T00:06:13.564Z,0.00
2018-04-12T00:07:13.521Z,0.00
2018-04-12T00:09:06.490Z,0.00
2018-04-12T00:10:06.447Z,0.00
2018-04-12T00:11:59.283Z,0.00
2018-04-12T00:12:59.217Z,0.00
2018-04-12T00:14:52.512Z,0.00
2018-04-12T00:15:52.553Z,0.00
2018-04-12T00:17:45.783Z,0.00
2018-04-12T00:18:45.740Z,0.00
2018-04-12T00:20:38.538Z,0.00
2018-04-12T00:21:38.496Z,0.00
2018-04-12T00:23:31.470Z,0.00
2018-04-12T00:24:31.417Z,0.00
2018-04-12T00:26:24.545Z,0.00
2018-04-12T00:27:24.329Z,0.00
2018-04-12T00:29:17.299Z,0.00
2018-04-12T00:30:17.247Z,0.00
2018-04-12T00:32:10.207Z,0.00
2018-04-12T00:33:10.155Z,0.00
2018-04-12T00:35:03.132Z,0.00
2018-04-12T00:36:03.094Z,0.00
2018-04-12T00:37:57.105Z,0.00
2018-04-12T00:38:57.004Z,0.00
2018-04-12T00:40:49.967Z,0.00
2018-04-12T00:41:50.032Z,0.00
2018-04-12T00:43:43.189Z,0.00
2018-04-12T00:44:43.038Z,0.00
2018-04-12T00:46:36.000Z,0.00
2018-04-12T00:47:35.977Z,0.00
2018-04-12T00:49:28.821Z,0.00
2018-04-12T00:50:28.743Z,0.00
2018-04-12T00:52:21.712Z,0.00
2018-04-12T00:53:21.654Z,0.00
2018-04-12T00:55:14.784Z,0.00
2018-04-12T00:56:14.542Z,0.00
2018-04-12T00:58:07.380Z,0.00
2018-04-12T00:59:07.308Z,0.00
2018-04-12T01:01:00.290Z,0.00
2018-04-12T01:02:00.229Z,0.00
2018-04-12T01:03:53.191Z,0.00
2018-04-12T01:04:53.138Z,0.00
2018-04-12T01:06:46.445Z,0.00
2018-04-12T01:07:46.394Z,0.00
2018-04-12T01:09:39.219Z,0.00
2018-04-12T01:10:39.165Z,0.00
2018-04-12T01:12:32.376Z,0.00
2018-04-12T01:13:32.319Z,0.00
2018-04-12T01:15:25.306Z,0.00
2018-04-12T01:16:25.232Z,0.00
2018-04-12T01:18:18.186Z,0.00
2018-04-12T01:19:18.161Z,0.00
2018-04-12T01:21:10.978Z,0.00
2018-04-12T01:22:10.926Z,0.00
2018-04-12T01:24:04.230Z,0.00
2018-04-12T01:25:04.346Z,0.00
2018-04-12T01:26:57.160Z,0.00
2018-04-12T01:27:57.085Z,0.00
2018-04-12T01:29:50.480Z,0.00
2018-04-12T01:30:49.856Z,0.00
2018-04-12T01:32:42.752Z,0.00
2018-04-12T01:33:42.612Z,0.00
2018-04-12T01:35:35.596Z,0.00
2018-04-12T01:36:35.538Z,0.00
2018-04-12T01:38:28.491Z,0.00
2018-04-12T01:39:28.462Z,0.00
2018-04-12T01:41:21.769Z,0.00
2018-04-12T01:42:21.716Z,0.00
2018-04-12T01:44:15.038Z,0.00
2018-04-12T01:45:15.025Z,0.00
2018-04-12T01:47:07.964Z,0.00
2018-04-12T01:48:07.919Z,0.00
2018-04-12T01:50:00.892Z,0.00
2018-04-12T01:51:00.955Z,0.00
2018-04-12T01:52:54.055Z,0.00
2018-04-12T01:53:53.926Z,0.00
2018-04-12T01:55:46.892Z,0.00
2018-04-12T01:56:46.831Z,0.00
2018-04-12T01:58:39.788Z,0.00
2018-04-12T01:59:39.779Z,0.00
2018-04-12T02:01:32.970Z,0.00
2018-04-12T02:02:32.774Z,0.00
2018-04-12T02:04:25.723Z,0.00
2018-04-12T02:05:25.681Z,0.00
2018-04-12T02:07:19.147Z,0.00
2018-04-12T02:08:18.970Z,0.00
2018-04-12T02:10:11.817Z,0.00
2018-04-12T02:11:11.741Z,0.00
2018-04-12T02:13:04.701Z,0.00
2018-04-12T02:14:04.649Z,0.00
2018-04-12T02:15:57.578Z,0.00
2018-04-12T02:16:57.551Z,0.00
2018-04-12T02:18:50.591Z,0.00
2018-04-12T02:19:50.418Z,0.00
2018-04-12T02:21:43.387Z,0.00
2018-04-12T02:22:43.347Z,0.00
2018-04-12T02:24:37.656Z,0.00
2018-04-12T02:25:37.601Z,0.00
2018-04-12T02:27:30.524Z,0.00
2018-04-12T02:28:30.367Z,0.00
2018-04-12T02:30:23.177Z,0.00
2018-04-12T02:31:23.125Z,0.00
2018-04-12T02:33:16.461Z,0.00
2018-04-12T02:34:16.405Z,0.00
2018-04-12T02:36:09.392Z,0.00
2018-04-12T02:37:09.321Z,0.00
2018-04-12T02:39:02.285Z,0.00
2018-04-12T02:40:02.232Z,0.00
2018-04-12T02:41:55.211Z,0.00
2018-04-12T02:42:55.177Z,0.00
2018-04-12T02:44:48.232Z,0.00
2018-04-12T02:45:48.174Z,0.00
2018-04-12T02:47:41.152Z,0.00
2018-04-12T02:48:41.083Z,0.00
2018-04-12T02:50:33.926Z,0.00
2018-04-12T02:51:33.836Z,0.00
2018-04-12T02:53:27.258Z,0.00
2018-04-12T02:54:27.196Z,0.00
2018-04-12T02:56:20.586Z,0.00
2018-04-12T02:57:20.450Z,0.00
2018-04-12T02:59:13.425Z,0.00
2018-04-12T03:00:13.363Z,0.00
2018-04-12T03:02:06.323Z,0.00
2018-04-12T03:03:06.403Z,0.00
2018-04-12T03:04:59.566Z,0.00
2018-04-12T03:05:59.383Z,0.00
2018-04-12T03:07:52.327Z,0.00
2018-04-12T03:08:52.284Z,0.00
2018-04-12T03:10:45.628Z,0.00
2018-04-12T03:11:45.564Z,0.00
2018-04-12T03:13:38.561Z,0.00
2018-04-12T03:14:38.484Z,0.00
2018-04-12T03:16:31.928Z,0.00
2018-04-12T03:17:31.757Z,0.00
2018-04-12T03:19:24.597Z,0.00
2018-04-12T03:20:24.514Z,0.00
2018-04-12T03:22:17.808Z,0.00
2018-04-12T03:23:17.770Z,0.00
2018-04-12T03:25:10.717Z,0.00
2018-04-12T03:26:10.595Z,0.00
2018-04-12T03:28:03.541Z,0.00
2018-04-12T03:29:03.500Z,0.00
2018-04-12T03:30:56.867Z,0.00
2018-04-12T03:31:56.808Z,0.00
2018-04-12T03:33:50.103Z,0.00
2018-04-12T03:34:50.117Z,0.00
2018-04-12T03:36:43.334Z,0.00
2018-04-12T03:37:43.148Z,0.00
2018-04-12T03:39:35.984Z,0.00
2018-04-12T03:40:35.932Z,0.00
2018-04-12T03:42:28.722Z,0.00
2018-04-12T03:43:28.684Z,0.00
2018-04-12T03:45:22.181Z,0.00
2018-04-12T03:46:22.010Z,0.00
2018-04-12T03:48:14.938Z,0.00
2018-04-12T03:49:14.969Z,0.00
2018-04-12T03:51:07.901Z,0.00
2018-04-12T03:52:07.843Z,0.00
2018-04-12T03:54:00.904Z,0.00
2018-04-12T03:55:00.868Z,0.00
2018-04-12T03:56:53.823Z,0.00
2018-04-12T03:57:53.757Z,0.00
2018-04-12T03:59:46.582Z,0.00
2018-04-12T04:00:46.527Z,0.00
2018-04-12T04:02:39.517Z,0.00
2018-04-12T04:03:39.442Z,0.00
2018-04-12T04:05:32.284Z,0.00
2018-04-12T04:06:32.304Z,0.00
2018-04-12T04:08:25.557Z,0.00
2018-04-12T04:09:25.502Z,0.00
2018-04-12T04:11:18.809Z,0.00
2018-04-12T04:12:18.748Z,0.00
2018-04-12T04:14:11.568Z,0.00
2018-04-12T04:15:11.517Z,0.00
2018-04-12T04:17:04.493Z,0.00
2018-04-12T04:18:04.495Z,0.00
2018-04-12T04:19:57.300Z,4.00
2018-04-12T04:20:57.260Z,4.00
2018-04-12T04:22:50.569Z,0.00
2018-04-12T04:23:50.616Z,4.00
2018-04-12T04:25:43.787Z,4.00
2018-04-12T04:26:43.647Z,8.00
2018-04-12T04:28:36.618Z,8.00
2018-04-12T04:29:36.563Z,8.00
2018-04-12T04:31:29.497Z,12.00
2018-04-12T04:32:29.463Z,12.00
2018-04-12T04:34:22.790Z,16.00
2018-04-12T04:35:22.715Z,20.00
2018-04-12T04:37:15.549Z,24.00
2018-04-12T04:38:15.492Z,28.00
2018-04-12T04:40:08.282Z,36.00
2018-04-12T04:41:08.273Z,40.00
2018-04-12T04:43:01.514Z,48.00
2018-04-12T04:44:01.361Z,52.00
2018-04-12T04:45:54.307Z,64.00
2018-04-12T04:46:54.263Z,72.00
2018-04-12T04:48:47.217Z,80.00
2018-04-12T04:49:47.254Z,84.00
2018-04-12T04:51:40.359Z,100.00
2018-04-12T04:52:40.239Z,112.00
2018-04-12T04:54:33.250Z,124.00
2018-04-12T04:55:33.176Z,136.00
2018-04-12T04:57:26.187Z,156.00
2018-04-12T04:58:26.120Z,164.00
2018-04-12T05:00:19.420Z,192.00
2018-04-12T05:01:19.374Z,208.00
2018-04-12T05:03:12.812Z,232.00
2018-04-12T05:04:12.652Z,244.00
2018-04-12T05:06:05.595Z,272.00
2018-04-12T05:07:05.551Z,288.00
2018-04-12T05:08:58.510Z,312.00
2018-04-12T05:09:58.503Z,328.00
2018-04-12T05:11:51.655Z,360.00
2018-04-12T05:12:51.569Z,380.00
2018-04-12T05:14:44.964Z,408.00
2018-04-12T05:15:44.393Z,424.00
2018-04-12T05:17:37.279Z,456.00
2018-04-12T05:18:37.240Z,472.00
2018-04-12T05:20:30.071Z,496.00
2018-04-12T05:21:30.125Z,504.00
2018-04-12T05:23:23.203Z,536.00
2018-04-12T05:24:23.109Z,556.00
2018-04-12T05:26:16.140Z,584.00
2018-04-12T05:27:16.084Z,596.00
2018-04-12T05:29:09.439Z,620.00
2018-04-12T05:30:09.346Z,636.00
2018-04-12T05:32:02.670Z,664.00
2018-04-12T05:33:02.600Z,676.00
2018-04-12T05:34:55.707Z,700.00
2018-04-12T05:35:55.562Z,712.00
2018-04-12T05:37:48.538Z,728.00
2018-04-12T05:38:48.496Z,736.00
2018-04-12T05:40:41.851Z,764.00
2018-04-12T05:41:41.765Z,768.00
2018-04-12T05:43:34.736Z,812.00
2018-04-12T05:44:34.694Z,824.00
2018-04-12T05:46:27.631Z,824.00
2018-04-12T05:47:27.604Z,840.00
2018-04-12T05:49:20.447Z,888.00
2018-04-12T05:50:20.355Z,924.00
2018-04-12T05:52:13.357Z,984.00
2018-04-12T05:53:13.134Z,1012.00
2018-04-12T05:55:06.468Z,1064.00
2018-04-12T05:56:06.426Z,1092.00
2018-04-12T05:57:59.575Z,1184.00
2018-04-12T05:58:59.525Z,1252.00
2018-04-12T06:00:52.538Z,1312.00
2018-04-12T06:01:52.496Z,1340.00
2018-04-12T06:03:45.736Z,1408.00
2018-04-12T06:04:45.649Z,1400.00
2018-04-12T06:06:38.671Z,1412.00
2018-04-12T06:07:38.604Z,1412.00
2018-04-12T06:09:31.975Z,1424.00
2018-04-12T06:10:31.867Z,1416.00
2018-04-12T06:12:24.885Z,1448.00
2018-04-12T06:13:24.850Z,1464.00
2018-04-12T06:15:17.826Z,1480.00
2018-04-12T06:16:17.756Z,1476.00
2018-04-12T06:18:10.586Z,1528.00
2018-04-12T06:19:10.529Z,1540.00
2018-04-12T06:21:03.363Z,1564.00
2018-04-12T06:22:03.321Z,1560.00
2018-04-12T06:23:56.292Z,1508.00
2018-04-12T06:24:56.247Z,1496.00
2018-04-12T06:26:49.842Z,1508.00
2018-04-12T06:27:49.523Z,1516.00
2018-04-12T06:29:43.812Z,1520.00
2018-04-12T06:30:43.771Z,1500.00
2018-04-12T06:32:37.093Z,1484.00
2018-04-12T06:33:37.038Z,1472.00
2018-04-12T06:35:29.986Z,1460.00
2018-04-12T06:36:29.955Z,1456.00
2018-04-12T06:38:23.193Z,1444.00
2018-04-12T06:39:23.071Z,1396.00
2018-04-12T06:41:16.060Z,1340.00
2018-04-12T06:42:16.005Z,1276.00
2018-04-12T06:44:08.967Z,1156.00
2018-04-12T06:45:08.915Z,1092.00
2018-04-12T06:47:01.876Z,1032.00
2018-04-12T06:48:01.766Z,1044.00
2018-04-12T06:49:54.570Z,1072.00
2018-04-12T06:50:54.532Z,1092.00
2018-04-12T06:52:47.503Z,1128.00
2018-04-12T06:53:47.451Z,1112.00
2018-04-12T06:55:40.396Z,1152.00
2018-04-12T06:56:40.369Z,1204.00
2018-04-12T06:58:33.535Z,1316.00
2018-04-12T06:59:33.358Z,1352.00
2018-04-12T07:01:26.351Z,1416.00
2018-04-12T07:02:26.285Z,1456.00
2018-04-12T07:04:19.282Z,1480.00
2018-04-12T07:05:19.222Z,1468.00
2018-04-12T07:07:13.158Z,1468.00
2018-04-12T07:08:12.090Z,1472.00
2018-04-12T07:10:05.417Z,1488.00
2018-04-12T07:11:05.991Z,1484.00
2018-04-12T07:12:58.610Z,1564.00
2018-04-12T07:13:58.455Z,1644.00
2018-04-12T07:15:51.791Z,1812.00
2018-04-12T07:16:51.730Z,1908.00
2018-04-12T07:18:44.564Z,2192.00
2018-04-12T07:19:44.509Z,2336.00
2018-04-12T07:21:37.465Z,2548.00
2018-04-12T07:22:37.427Z,2572.00
2018-04-12T07:24:30.439Z,2492.00
2018-04-12T07:25:30.395Z,2368.00
2018-04-12T07:27:24.684Z,2252.00
2018-04-12T07:28:24.646Z,2272.00
2018-04-12T07:30:17.470Z,2204.00
2018-04-12T07:31:17.411Z,2136.00
2018-04-12T07:33:10.847Z,2040.00
2018-04-12T07:34:10.682Z,1908.00
2018-04-12T07:36:03.668Z,1968.00
2018-04-12T07:37:03.607Z,2056.00
2018-04-12T07:38:56.556Z,2292.00
2018-04-12T07:39:56.511Z,2496.00
2018-04-12T07:41:49.891Z,2708.00
2018-04-12T07:42:49.791Z,2944.00
2018-04-12T07:44:43.220Z,3132.00
2018-04-12T07:45:43.065Z,3248.00
2018-04-12T07:47:36.036Z,3536.00
2018-04-12T07:48:35.992Z,3668.00
2018-04-12T07:50:28.827Z,3900.00
2018-04-12T07:51:28.744Z,3976.00
2018-04-12T07:53:21.556Z,4212.00
2018-04-12T07:54:21.609Z,4284.00
2018-04-12T07:56:14.796Z,4428.00
2018-04-12T07:57:14.605Z,4584.00
2018-04-12T07:59:07.565Z,4752.00
2018-04-12T08:00:07.524Z,4828.00
2018-04-12T08:02:00.961Z,4916.00
2018-04-12T08:03:00.815Z,4904.00
2018-04-12T08:04:54.127Z,5180.00
2018-04-12T08:05:54.123Z,5292.00
2018-04-12T08:07:47.316Z,5532.00
2018-04-12T08:08:47.192Z,5576.00
2018-04-12T08:10:40.181Z,5600.00
2018-04-12T08:11:40.128Z,5704.00
2018-04-12T08:13:33.459Z,5828.00
2018-04-12T08:14:33.398Z,5856.00
2018-04-12T08:16:26.403Z,5848.00
2018-04-12T08:17:26.397Z,5860.00
2018-04-12T08:19:19.291Z,5816.00
2018-04-12T08:20:19.265Z,5764.00
2018-04-12T08:22:12.369Z,5696.00
2018-04-12T08:23:12.119Z,5664.00
2018-04-12T08:25:05.088Z,5632.00
2018-04-12T08:26:05.053Z,5600.00
2018-04-12T08:27:58.029Z,5560.00
2018-04-12T08:28:58.019Z,5540.00
2018-04-12T08:30:51.182Z,5516.00
2018-04-12T08:31:51.118Z,5524.00
2018-04-12T08:33:44.125Z,5572.00
2018-04-12T08:34:44.058Z,5572.00
2018-04-12T08:36:36.998Z,5636.00
2018-04-12T08:37:36.967Z,5676.00
2018-04-12T08:39:30.052Z,5692.00
2018-04-12T08:40:29.836Z,5696.00
2018-04-12T08:42:22.841Z,5676.00
2018-04-12T08:43:22.773Z,5684.00
2018-04-12T08:45:15.829Z,5784.00
2018-04-12T08:46:15.793Z,5888.00
2018-04-12T08:48:08.941Z,6152.00
2018-04-12T08:49:08.672Z,6296.00
2018-04-12T08:51:01.694Z,7028.00
2018-04-12T08:52:01.666Z,7352.00
2018-04-12T08:53:54.626Z,8080.00
2018-04-12T08:54:54.593Z,8520.00
2018-04-12T08:56:47.675Z,8972.00
2018-04-12T08:57:47.638Z,9144.00
2018-04-12T08:59:40.466Z,9112.00
2018-04-12T09:00:40.409Z,9200.00
2018-04-12T09:02:33.400Z,9656.00
2018-04-12T09:03:33.484Z,9724.00
2018-04-12T09:05:26.540Z,9700.00
2018-04-12T09:06:26.448Z,9936.00
2018-04-12T09:08:19.424Z,10160.00
2018-04-12T09:09:19.365Z,10076.00
2018-04-12T09:11:12.359Z,9312.00
2018-04-12T09:12:12.420Z,8988.00
2018-04-12T09:14:05.545Z,8368.00
2018-04-12T09:15:05.470Z,8248.00
2018-04-12T09:16:58.326Z,8768.00
2018-04-12T09:17:58.254Z,8696.00
2018-04-12T09:19:52.655Z,9416.00
2018-04-12T09:20:51.581Z,9952.00
2018-04-12T09:22:45.498Z,11080.00
2018-04-12T09:23:44.549Z,11236.00
2018-04-12T09:25:37.602Z,11344.00
2018-04-12T09:26:37.594Z,11068.00
2018-04-12T09:28:30.524Z,9892.00
2018-04-12T09:29:30.417Z,10272.00
2018-04-12T09:31:23.996Z,10608.00
2018-04-12T09:32:23.414Z,10568.00
2018-04-12T09:34:16.835Z,10312.00
2018-04-12T09:35:17.337Z,10120.00
2018-04-12T09:37:10.173Z,10212.00
2018-04-12T09:38:10.039Z,9968.00
2018-04-12T09:40:03.056Z,9436.00
2018-04-12T09:41:02.849Z,9376.00
2018-04-12T09:42:55.822Z,9404.00
2018-04-12T09:43:55.789Z,9232.00
2018-04-12T09:45:48.789Z,9464.00
2018-04-12T09:46:48.711Z,9880.00
2018-04-12T09:48:42.020Z,11168.00
2018-04-12T09:49:42.001Z,13204.00
2018-04-12T09:51:35.471Z,15928.00
2018-04-12T09:52:35.304Z,20224.00
2018-04-12T09:54:28.580Z,22432.00
2018-04-12T09:55:28.571Z,22176.00
2018-04-12T09:57:21.896Z,31200.00
2018-04-12T09:58:21.850Z,35200.00
2018-04-12T10:00:15.341Z,31392.00
2018-04-12T10:01:15.120Z,33440.00
2018-04-12T10:03:09.031Z,35456.00
2018-04-12T10:04:08.414Z,36256.00
2018-04-12T10:06:01.760Z,34176.00
2018-04-12T10:07:01.694Z,32352.00
2018-04-12T10:08:55.073Z,21696.00
2018-04-12T10:09:54.984Z,19232.00
2018-04-12T10:11:48.346Z,17472.00
2018-04-12T10:12:48.288Z,15876.00
2018-04-12T10:14:41.602Z,16360.00
2018-04-12T10:15:41.577Z,16264.00
2018-04-12T10:17:34.581Z,21184.00
2018-04-12T10:18:34.522Z,14228.00
2018-04-12T10:20:27.852Z,22400.00
2018-04-12T10:21:27.821Z,16076.00
2018-04-12T10:23:21.266Z,25088.00
2018-04-12T10:24:21.097Z,25568.00
2018-04-12T10:26:14.209Z,19936.00
2018-04-12T10:27:14.151Z,14756.00
2018-04-12T10:29:07.492Z,12688.00
2018-04-12T10:30:07.440Z,11176.00
2018-04-12T10:32:01.004Z,12668.00
2018-04-12T10:33:00.821Z,12788.00
2018-04-12T10:34:54.122Z,9704.00
2018-04-12T10:35:54.110Z,7772.00
2018-04-12T10:37:47.434Z,6532.00
2018-04-12T10:38:47.384Z,6088.00
2018-04-12T10:40:40.405Z,5544.00
2018-04-12T10:41:40.389Z,5228.00
2018-04-12T10:43:33.202Z,4596.00
2018-04-12T10:44:33.186Z,4236.00
2018-04-12T10:46:26.175Z,4184.00
2018-04-12T10:47:26.119Z,4260.00
2018-04-12T10:49:19.096Z,4624.00
2018-04-12T10:50:19.169Z,5000.00
2018-04-12T10:52:12.396Z,5604.00
2018-04-12T10:53:12.177Z,5808.00
2018-04-12T10:55:05.143Z,6096.00
2018-04-12T10:56:05.106Z,6256.00
2018-04-12T10:57:58.090Z,6656.00
2018-04-12T10:58:58.052Z,6948.00
2018-04-12T11:00:50.879Z,7616.00
2018-04-12T11:01:50.857Z,8204.00
2018-04-12T11:03:43.699Z,9832.00
2018-04-12T11:04:43.641Z,10564.00
2018-04-12T11:06:36.615Z,12836.00
2018-04-12T11:07:36.568Z,13832.00
2018-04-12T11:09:29.547Z,16672.00
2018-04-12T11:10:29.496Z,16424.00
2018-04-12T11:12:22.725Z,18048.00
2018-04-12T11:13:22.601Z,18656.00
2018-04-12T11:15:15.552Z,23264.00
2018-04-12T11:16:15.528Z,23776.00
2018-04-12T11:18:08.534Z,32736.00
2018-04-12T11:19:08.492Z,38816.00
2018-04-12T11:21:01.422Z,41600.00
2018-04-12T11:22:01.278Z,41856.00
2018-04-12T11:23:54.293Z,41568.00
2018-04-12T11:24:54.254Z,38624.00
2018-04-12T11:26:47.444Z,34240.00
2018-04-12T11:27:47.252Z,32576.00
2018-04-12T11:29:40.390Z,29728.00
2018-04-12T11:30:40.184Z,28992.00
2018-04-12T11:32:33.147Z,26336.00
2018-04-12T11:33:33.130Z,28512.00
2018-04-12T11:35:26.122Z,23424.00
2018-04-12T11:36:26.095Z,20384.00
2018-04-12T11:38:19.276Z,29248.00
2018-04-12T11:39:19.243Z,32672.00
2018-04-12T11:41:12.276Z,34208.00
2018-04-12T11:42:12.301Z,29088.00
2018-04-12T11:44:05.428Z,41184.00
2018-04-12T11:45:05.360Z,44416.00
2018-04-12T11:46:58.346Z,46240.00
2018-04-12T11:47:58.316Z,49504.00
2018-04-12T11:49:51.361Z,46400.00
2018-04-12T11:50:51.251Z,47936.00
2018-04-12T11:52:44.112Z,45248.00
2018-04-12T11:53:44.058Z,46080.00
2018-04-12T11:55:37.057Z,47008.00
2018-04-12T11:56:37.003Z,49568.00
2018-04-12T11:58:30.073Z,48416.00
2018-04-12T11:59:30.033Z,51744.00
2018-04-12T12:01:23.167Z,52064.00
2018-04-12T12:02:23.211Z,52256.00
2018-04-12T12:04:16.179Z,56896.00
2018-04-12T12:05:16.132Z,59520.00
2018-04-12T12:07:09.092Z,65440.00
2018-04-12T12:08:09.087Z,70784.00
2018-04-12T12:10:02.088Z,79712.00
2018-04-12T12:11:01.877Z,82016.00
2018-04-12T12:12:54.877Z,76736.00
2018-04-12T12:13:54.868Z,69888.00
2018-04-12T12:15:47.718Z,47712.00
2018-04-12T12:16:47.745Z,35200.00
2018-04-12T12:18:40.891Z,27616.00
2018-04-12T12:19:40.807Z,25984.00
2018-04-12T12:21:33.803Z,24640.00
2018-04-12T12:22:33.773Z,24512.00
2018-04-12T12:24:26.733Z,24320.00
2018-04-12T12:25:26.706Z,24544.00
2018-04-12T12:27:19.713Z,24192.00
2018-04-12T12:28:19.551Z,24352.00
2018-04-12T12:30:12.422Z,24000.00
2018-04-12T12:31:12.358Z,24384.00
2018-04-12T12:33:05.378Z,24512.00
2018-04-12T12:34:05.403Z,24448.00
2018-04-12T12:35:58.669Z,25536.00
2018-04-12T12:36:58.514Z,26400.00
2018-04-12T12:38:51.488Z,27392.00
2018-04-12T12:39:51.477Z,27776.00
2018-04-12T12:41:44.327Z,27232.00
2018-04-12T12:42:44.307Z,26912.00
2018-04-12T12:44:37.482Z,25856.00
2018-04-12T12:45:37.463Z,25120.00
2018-04-12T12:47:30.601Z,24192.00
2018-04-12T12:48:30.561Z,23744.00
2018-04-12T12:50:23.755Z,23136.00
2018-04-12T12:51:23.510Z,23168.00
2018-04-12T12:53:16.498Z,22528.00
2018-04-12T12:54:16.476Z,22176.00
2018-04-12T12:56:09.489Z,21760.00
2018-04-12T12:57:09.432Z,21408.00
2018-04-12T12:59:02.456Z,21408.00
2018-04-12T13:00:02.326Z,21568.00
2018-04-12T13:01:55.354Z,21376.00
2018-04-12T13:02:55.314Z,21600.00
2018-04-12T13:04:48.380Z,21312.00
2018-04-12T13:05:48.362Z,21504.00
2018-04-12T13:07:41.383Z,21472.00
2018-04-12T13:08:41.184Z,21504.00
2018-04-12T13:10:34.060Z,21888.00
2018-04-12T13:11:33.981Z,21888.00
2018-04-12T13:13:26.871Z,22304.00
2018-04-12T13:14:26.844Z,22464.00
2018-04-12T13:16:19.824Z,21824.00
2018-04-12T13:17:19.831Z,21600.00
2018-04-12T13:19:12.885Z,20960.00
2018-04-12T13:20:12.859Z,20352.00
2018-04-12T13:22:05.874Z,19456.00
2018-04-12T13:23:05.805Z,18400.00
2018-04-12T13:24:59.133Z,17664.00
2018-04-12T13:25:58.949Z,17088.00
2018-04-12T13:27:52.004Z,16256.00
2018-04-12T13:28:51.939Z,15484.00
2018-04-12T13:30:44.953Z,14260.00
2018-04-12T13:31:44.944Z,14344.00
2018-04-12T13:33:38.000Z,13764.00
2018-04-12T13:34:37.801Z,12684.00
2018-04-12T13:36:30.837Z,11332.00
2018-04-12T13:37:30.789Z,11776.00
2018-04-12T13:39:23.782Z,11596.00
2018-04-12T13:40:23.733Z,12428.00
2018-04-12T13:42:16.600Z,14056.00
2018-04-12T13:43:16.546Z,13528.00
2018-04-12T13:45:09.525Z,15044.00
2018-04-12T13:46:09.512Z,15224.00
2018-04-12T13:48:02.489Z,15432.00
2018-04-12T13:49:02.456Z,16576.00
2018-04-12T13:50:55.636Z,15992.00
2018-04-12T13:51:55.612Z,15784.00
2018-04-12T13:53:48.595Z,15356.00
2018-04-12T13:54:48.561Z,14380.00
2018-04-12T13:56:41.540Z,13592.00
2018-04-12T13:57:41.496Z,13660.00
2018-04-12T13:59:34.476Z,13104.00
2018-04-12T14:00:34.278Z,12088.00
2018-04-12T14:02:27.313Z,11196.00
2018-04-12T14:03:27.253Z,11336.00
2018-04-12T14:05:20.223Z,12980.00
2018-04-12T14:06:20.230Z,13420.00
2018-04-12T14:08:13.414Z,12072.00
2018-04-12T14:09:13.314Z,11488.00
2018-04-12T14:11:06.327Z,10004.00
2018-04-12T14:12:06.462Z,10064.00
2018-04-12T14:13:59.391Z,9668.00
2018-04-12T14:14:59.352Z,7536.00
2018-04-12T14:16:52.366Z,7424.00
2018-04-12T14:17:52.321Z,9564.00
2018-04-12T14:19:45.418Z,8388.00
2018-04-12T14:20:45.349Z,7660.00
2018-04-12T14:22:38.306Z,7532.00
2018-04-12T14:23:38.215Z,7208.00
2018-04-12T14:25:31.212Z,6248.00
2018-04-12T14:26:31.160Z,5764.00
2018-04-12T14:28:24.150Z,5124.00
2018-04-12T14:29:24.231Z,5080.00
2018-04-12T14:31:16.984Z,5196.00
2018-04-12T14:32:16.940Z,5284.00
2018-04-12T14:34:09.785Z,5704.00
2018-04-12T14:35:09.777Z,5856.00
2018-04-12T14:37:02.769Z,6264.00
2018-04-12T14:38:02.684Z,6376.00
2018-04-12T14:39:55.694Z,6240.00
2018-04-12T14:40:55.706Z,6360.00
2018-04-12T14:42:48.563Z,6584.00
2018-04-12T14:43:48.547Z,6388.00
2018-04-12T14:45:41.541Z,6432.00
2018-04-12T14:46:41.482Z,5980.00
2018-04-12T14:48:34.445Z,6936.00
2018-04-12T14:49:34.406Z,6552.00
2018-04-12T14:51:27.671Z,6200.00
2018-04-12T14:52:27.562Z,6124.00
2018-04-12T14:54:20.553Z,5140.00
2018-04-12T14:55:20.505Z,4832.00
2018-04-12T14:57:13.909Z,4580.00
2018-04-12T14:58:13.788Z,4444.00
2018-04-12T15:00:06.611Z,4392.00
2018-04-12T15:01:06.565Z,4364.00
2018-04-12T15:02:59.587Z,4340.00
2018-04-12T15:03:59.579Z,4344.00
2018-04-12T15:05:52.819Z,4356.00
2018-04-12T15:06:52.705Z,4392.00
2018-04-12T15:08:45.708Z,4480.00
2018-04-12T15:09:45.642Z,4456.00
2018-04-12T15:11:38.653Z,4428.00
2018-04-12T15:12:38.600Z,4400.00
2018-04-12T15:14:31.562Z,4468.00
2018-04-12T15:15:31.444Z,4532.00
2018-04-12T15:17:24.415Z,4760.00
2018-04-12T15:18:24.384Z,5008.00
2018-04-12T15:20:17.195Z,4616.00
2018-04-12T15:21:17.167Z,4508.00
2018-04-12T15:23:10.362Z,4300.00
2018-04-12T15:24:10.319Z,4196.00
2018-04-12T15:26:03.349Z,4112.00
2018-04-12T15:27:03.276Z,3840.00
2018-04-12T15:28:56.275Z,3628.00
2018-04-12T15:29:56.247Z,3600.00
2018-04-12T15:31:49.106Z,3608.00
2018-04-12T15:32:49.075Z,3632.00
2018-04-12T15:34:42.038Z,3628.00
2018-04-12T15:35:42.046Z,3588.00
2018-04-12T15:37:34.996Z,3528.00
2018-04-12T15:38:35.038Z,3572.00
2018-04-12T15:40:27.768Z,3768.00
2018-04-12T15:41:27.749Z,3816.00
2018-04-12T15:43:20.669Z,3724.00
2018-04-12T15:44:20.585Z,3636.00
2018-04-12T15:46:14.532Z,3500.00
2018-04-12T15:47:14.517Z,3456.00
2018-04-12T15:49:07.544Z,3428.00
2018-04-12T15:50:07.514Z,3416.00
2018-04-12T15:52:00.836Z,3504.00
2018-04-12T15:53:00.758Z,3624.00
2018-04-12T15:54:53.771Z,3788.00
2018-04-12T15:55:53.746Z,3824.00
2018-04-12T15:57:46.565Z,3832.00
2018-04-12T15:58:46.510Z,3768.00
2018-04-12T16:00:39.529Z,3708.00
2018-04-12T16:01:39.471Z,3788.00
2018-04-12T16:03:32.475Z,3800.00
2018-04-12T16:04:32.433Z,3736.00
2018-04-12T16:06:25.494Z,3752.00
2018-04-12T16:07:25.460Z,3812.00
2018-04-12T16:09:18.470Z,4048.00
2018-04-12T16:10:18.407Z,4116.00
2018-04-12T16:12:11.391Z,4672.00
2018-04-12T16:13:11.421Z,4856.00
2018-04-12T16:15:04.621Z,5656.00
2018-04-12T16:16:04.464Z,7636.00
2018-04-12T16:17:57.405Z,8008.00
2018-04-12T16:18:57.371Z,7900.00
2018-04-12T16:20:50.367Z,5672.00
2018-04-12T16:21:50.322Z,6596.00
2018-04-12T16:23:43.515Z,5184.00
2018-04-12T16:24:43.253Z,4988.00
2018-04-12T16:26:36.239Z,4940.00
2018-04-12T16:27:36.228Z,4780.00
2018-04-12T16:29:29.259Z,4404.00
2018-04-12T16:30:29.234Z,4300.00
2018-04-12T16:32:22.058Z,4396.00
2018-04-12T16:33:22.033Z,4520.00
2018-04-12T16:35:15.071Z,4412.00
2018-04-12T16:36:15.016Z,3744.00
2018-04-12T16:38:08.001Z,3636.00
2018-04-12T16:39:08.002Z,3560.00
2018-04-12T16:41:01.234Z,3672.00
2018-04-12T16:42:01.128Z,4692.00
2018-04-12T16:43:54.113Z,4292.00
2018-04-12T16:44:54.062Z,3044.00
2018-04-12T16:46:47.372Z,3496.00
2018-04-12T16:47:47.212Z,3736.00
2018-04-12T16:49:40.227Z,3492.00
2018-04-12T16:50:40.178Z,3148.00
2018-04-12T16:52:33.212Z,1216.00
2018-04-12T16:53:33.140Z,1084.00
2018-04-12T16:55:26.064Z,948.00
2018-04-12T16:56:26.020Z,888.00
2018-04-12T16:58:19.030Z,804.00
2018-04-12T16:59:18.971Z,788.00
2018-04-12T17:01:11.985Z,812.00
2018-04-12T17:02:11.953Z,844.00
2018-04-12T17:04:05.073Z,896.00
2018-04-12T17:05:05.045Z,952.00
2018-04-12T17:06:58.046Z,1076.00
2018-04-12T17:07:58.000Z,1152.00
2018-04-12T17:09:50.814Z,1236.00
2018-04-12T17:10:50.767Z,1248.00
2018-04-12T17:12:44.012Z,1224.00
2018-04-12T17:13:43.953Z,1220.00
2018-04-12T17:15:36.933Z,1216.00
2018-04-12T17:16:37.008Z,1196.00
2018-04-12T17:18:30.243Z,1188.00
2018-04-12T17:19:30.174Z,1176.00
2018-04-12T17:21:23.193Z,1160.00
2018-04-12T17:22:23.189Z,1144.00
2018-04-12T17:24:16.373Z,1136.00
2018-04-12T17:25:16.293Z,1144.00
2018-04-12T17:27:09.314Z,1152.00
2018-04-12T17:28:09.268Z,1176.00
2018-04-12T17:30:02.287Z,1164.00
2018-04-12T17:31:02.229Z,1224.00
2018-04-12T17:32:55.023Z,1316.00
2018-04-12T17:33:54.995Z,1332.00
2018-04-12T17:35:47.991Z,1288.00
2018-04-12T17:36:47.944Z,1248.00
2018-04-12T17:38:40.934Z,1140.00
2018-04-12T17:39:40.953Z,1080.00
2018-04-12T17:41:33.737Z,972.00
2018-04-12T17:42:33.682Z,924.00
2018-04-12T17:44:26.522Z,856.00
2018-04-12T17:45:26.459Z,816.00
2018-04-12T17:47:19.501Z,752.00